Plymouth, Nebraska
Current Conditions -  °F | °C
As of 3:35 PM on Monday 24 Nov 2014 (Local Time) from KBIE Reporting Station
Clear Clear  
Wind Chill: 29°   Ceiling: Unl
Heat Index: 39°   Visibility: 10mi
Dew Point: 12°   Wind: 22mph
Humidity: 33%   Direction: 310°NW
Pressure: 29.89"   Gusts: 29mph
Location:  40.3°N, 96.99°W
Report Text: KBIE 242135Z AUTO 31019G25KT 10SM CLR 04/M11 A2989 RMK AO2 T00391110
Loading
Personal Weather Stations






























Interactive Weather Map New forecast layout! Learn more

10-Day Weather Forecast

Advertisements
Track Severe Weather on mobile